createdAt,value
2023-09-11T00:00:09.562Z,99.90
2023-09-11T00:02:37.761Z,99.90
2023-09-11T00:08:47.378Z,99.90
2023-09-11T00:11:16.856Z,99.90
2023-09-11T00:13:45.028Z,99.90
2023-09-11T00:16:13.082Z,99.90
2023-09-11T00:18:41.476Z,99.90
2023-09-11T00:21:09.871Z,99.90
2023-09-11T00:23:37.967Z,99.90
2023-09-11T00:26:06.129Z,99.90
2023-09-11T00:28:35.617Z,99.90
2023-09-11T00:31:03.694Z,99.90
2023-09-11T00:33:31.867Z,99.90
2023-09-11T00:36:00.190Z,99.90
2023-09-11T00:38:29.006Z,99.90
2023-09-11T00:40:57.074Z,99.90
2023-09-11T00:43:25.166Z,99.90
2023-09-11T00:45:56.428Z,99.90
2023-09-11T00:48:25.327Z,99.90
2023-09-11T00:50:53.637Z,99.90
2023-09-11T00:53:22.902Z,99.90
2023-09-11T00:55:51.094Z,99.90
2023-09-11T00:58:19.406Z,99.90
2023-09-11T01:00:48.224Z,99.90
2023-09-11T01:03:18.478Z,99.90
2023-09-11T01:05:48.329Z,99.90
2023-09-11T01:08:16.552Z,99.90
2023-09-11T01:10:44.761Z,99.90
2023-09-11T01:13:12.831Z,99.90
2023-09-11T01:15:47.854Z,99.90
2023-09-11T01:18:29.470Z,99.90
2023-09-11T01:21:14.754Z,99.90
2023-09-11T01:24:25.524Z,99.90
2023-09-11T01:27:18.778Z,99.90
2023-09-11T01:29:51.268Z,99.90
2023-09-11T01:32:21.429Z,99.90
2023-09-11T01:34:49.605Z,99.90
2023-09-11T01:37:17.687Z,99.90
2023-09-11T01:39:46.087Z,99.90
2023-09-11T01:42:19.890Z,99.90
2023-09-11T01:44:51.556Z,99.90
2023-09-11T01:47:23.942Z,99.90
2023-09-11T01:49:53.918Z,99.90
2023-09-11T01:52:23.036Z,99.90
2023-09-11T01:54:51.987Z,99.90
2023-09-11T01:57:20.578Z,99.90
2023-09-11T01:59:50.022Z,99.90
2023-09-11T02:02:18.600Z,99.90
2023-09-11T02:04:46.997Z,99.90
2023-09-11T02:07:15.698Z,99.90
2023-09-11T02:09:43.775Z,99.90
2023-09-11T02:12:11.958Z,99.90
2023-09-11T02:14:40.093Z,99.90
2023-09-11T02:17:09.498Z,99.90
2023-09-11T02:19:37.580Z,99.90
2023-09-11T02:22:05.949Z,99.90
2023-09-11T02:24:34.149Z,99.90
2023-09-11T02:27:02.245Z,99.90
2023-09-11T02:29:30.458Z,99.90
2023-09-11T02:31:58.668Z,99.90
2023-09-11T02:34:28.345Z,99.90
2023-09-11T02:36:56.408Z,99.90
2023-09-11T02:39:24.553Z,99.90
2023-09-11T02:41:52.671Z,99.90
2023-09-11T02:44:20.882Z,99.90
2023-09-11T02:46:49.002Z,99.90
2023-09-11T02:49:18.687Z,99.90
2023-09-11T02:51:48.452Z,99.90
2023-09-11T02:54:16.570Z,99.90
2023-09-11T02:56:44.736Z,99.90
2023-09-11T02:59:13.336Z,99.90
2023-09-11T03:01:41.494Z,99.90
2023-09-11T03:04:09.690Z,99.90
2023-09-11T03:06:37.760Z,99.90
2023-09-11T03:09:07.422Z,99.90
2023-09-11T03:11:35.586Z,99.90
2023-09-11T03:14:03.822Z,99.90
2023-09-11T03:16:32.087Z,99.90
2023-09-11T03:19:00.302Z,99.90
2023-09-11T03:21:28.531Z,99.90
2023-09-11T03:23:56.688Z,99.90
2023-09-11T03:26:26.573Z,99.90
2023-09-11T03:28:57.184Z,99.90
2023-09-11T03:31:29.621Z,99.90
2023-09-11T03:33:59.354Z,99.90
2023-09-11T03:36:27.576Z,99.90
2023-09-11T03:38:56.173Z,99.90
2023-09-11T03:41:25.836Z,99.90
2023-09-11T03:43:54.265Z,99.90
2023-09-11T03:46:22.504Z,99.90
2023-09-11T03:48:50.825Z,99.90
2023-09-11T03:51:20.502Z,99.90
2023-09-11T03:53:51.499Z,99.90
2023-09-11T03:56:26.269Z,99.90
2023-09-11T03:58:55.287Z,99.90
2023-09-11T04:01:23.456Z,99.90
2023-09-11T04:03:51.837Z,99.90
2023-09-11T04:06:20.511Z,99.90
2023-09-11T04:08:50.138Z,99.90
2023-09-11T04:11:20.183Z,99.90
2023-09-11T04:13:49.640Z,99.90
2023-09-11T04:16:17.974Z,99.90
2023-09-11T04:18:46.673Z,99.90
2023-09-11T04:21:17.359Z,99.90
2023-09-11T04:23:45.685Z,99.90
2023-09-11T04:26:13.869Z,99.90
2023-09-11T04:28:42.064Z,99.90
2023-09-11T04:31:11.833Z,99.90
2023-09-11T04:33:40.035Z,99.90
2023-09-11T04:36:08.686Z,99.90
2023-09-11T04:38:36.975Z,99.90
2023-09-11T04:41:05.386Z,99.90
2023-09-11T04:43:33.583Z,99.90
2023-09-11T04:46:02.091Z,99.90
2023-09-11T04:48:31.782Z,99.90
2023-09-11T04:51:00.181Z,99.90
2023-09-11T04:53:28.383Z,99.90
2023-09-11T04:55:57.928Z,99.90
2023-09-11T04:58:26.970Z,99.90
2023-09-11T05:00:55.836Z,99.90
2023-09-11T05:03:24.570Z,99.90
2023-09-11T05:05:54.182Z,99.90
2023-09-11T05:08:22.825Z,99.90
2023-09-11T05:10:51.040Z,99.90
2023-09-11T05:13:19.954Z,99.90
2023-09-11T05:15:50.092Z,99.90
2023-09-11T05:18:18.693Z,99.90
2023-09-11T05:20:47.569Z,99.90
2023-09-11T05:23:18.935Z,99.90
2023-09-11T05:25:47.269Z,99.90
2023-09-11T05:28:15.400Z,99.90
2023-09-11T05:30:43.424Z,99.90
2023-09-11T05:33:11.962Z,99.90
2023-09-11T05:35:40.212Z,99.90
2023-09-11T05:38:08.332Z,99.90
2023-09-11T05:40:38.036Z,99.90
2023-09-11T05:43:06.334Z,99.90
2023-09-11T05:45:34.702Z,99.90
2023-09-11T05:48:03.114Z,99.90
2023-09-11T05:50:31.299Z,99.90
2023-09-11T05:52:59.436Z,99.90
2023-09-11T05:55:27.530Z,99.90
2023-09-11T05:57:57.210Z,99.90
2023-09-11T06:00:27.620Z,99.90
2023-09-11T06:02:55.991Z,99.90
2023-09-11T06:05:24.417Z,99.90
2023-09-11T06:07:52.826Z,99.90
2023-09-11T06:10:20.874Z,99.90
2023-09-11T06:12:49.108Z,99.90
2023-09-11T06:15:18.676Z,99.90
2023-09-11T06:17:46.845Z,99.90
2023-09-11T06:20:16.898Z,99.90
2023-09-11T06:22:45.554Z,99.90
2023-09-11T06:25:13.794Z,99.90
2023-09-11T06:27:41.939Z,99.90
2023-09-11T06:30:10.882Z,99.90
2023-09-11T06:32:40.500Z,99.90
2023-09-11T06:35:10.972Z,99.90
2023-09-11T06:37:39.076Z,99.90
2023-09-11T06:40:10.399Z,99.90
2023-09-11T06:42:38.959Z,99.90
2023-09-11T06:45:07.817Z,99.90
2023-09-11T06:47:36.231Z,99.90
2023-09-11T06:50:06.236Z,99.90
2023-09-11T06:52:39.399Z,99.90
2023-09-11T06:55:09.045Z,99.90
2023-09-11T06:57:37.109Z,99.90
2023-09-11T07:00:15.028Z,99.90
2023-09-11T07:02:49.454Z,99.90
2023-09-11T07:05:21.317Z,99.90
2023-09-11T07:07:49.632Z,99.90
2023-09-11T07:10:30.213Z,99.90
2023-09-11T07:13:02.748Z,99.90
2023-09-11T07:15:30.792Z,99.90
2023-09-11T07:17:58.888Z,99.90
2023-09-11T07:20:28.918Z,99.90
2023-09-11T07:22:57.218Z,99.90
2023-09-11T07:25:25.576Z,99.90
2023-09-11T07:27:59.402Z,99.90
2023-09-11T07:30:28.518Z,99.90
2023-09-11T07:32:57.039Z,99.90
2023-09-11T07:35:25.334Z,99.90
2023-09-11T07:37:55.040Z,99.90
2023-09-11T07:40:24.114Z,99.90
2023-09-11T07:42:54.111Z,99.90
2023-09-11T07:45:22.496Z,99.90
2023-09-11T07:47:51.674Z,99.90
2023-09-11T07:50:20.634Z,99.90
2023-09-11T07:52:49.086Z,99.90
2023-09-11T07:55:20.502Z,99.90
2023-09-11T07:57:48.846Z,99.90
2023-09-11T08:00:17.225Z,99.90
2023-09-11T08:02:45.814Z,99.90
2023-09-11T08:05:13.982Z,99.90
2023-09-11T08:07:42.059Z,99.90
2023-09-11T08:10:10.953Z,99.90
2023-09-11T08:12:40.338Z,99.90
2023-09-11T08:15:10.172Z,99.90
2023-09-11T08:17:38.291Z,99.90
2023-09-11T08:20:07.912Z,99.90
2023-09-11T08:22:35.930Z,99.90
2023-09-11T08:25:06.509Z,99.90
2023-09-11T08:27:34.734Z,99.90
2023-09-11T08:30:04.295Z,99.90
2023-09-11T08:32:35.092Z,99.90
2023-09-11T08:35:04.172Z,99.90
2023-09-11T08:37:32.402Z,99.90
2023-09-11T08:40:00.946Z,99.90
2023-09-11T08:42:29.188Z,99.90
2023-09-11T08:44:57.435Z,99.40
2023-09-11T08:47:30.786Z,99.30
2023-09-11T08:50:04.525Z,97.50
2023-09-11T08:52:33.646Z,97.30
2023-09-11T08:55:09.237Z,99.20
2023-09-11T08:57:40.734Z,99.10
2023-09-11T09:00:14.814Z,98.80
2023-09-11T09:02:45.253Z,99.60
2023-09-11T09:05:14.592Z,98.30
2023-09-11T09:07:45.039Z,99.60
2023-09-11T09:10:13.776Z,99.90
2023-09-11T09:12:42.497Z,99.90
2023-09-11T09:15:11.697Z,98.50
2023-09-11T09:17:40.276Z,98.90
2023-09-11T09:20:12.498Z,99.50
2023-09-11T09:22:55.928Z,98.80
2023-09-11T09:25:24.406Z,99.20
2023-09-11T09:27:52.528Z,98.40
2023-09-11T09:30:21.776Z,97.00
2023-09-11T09:32:50.994Z,97.60
2023-09-11T09:35:23.132Z,97.40
2023-09-11T09:37:53.131Z,96.50
2023-09-11T09:40:35.266Z,96.00
2023-09-11T09:43:05.590Z,96.30
2023-09-11T09:45:36.806Z,94.60
2023-09-11T09:48:12.237Z,93.40
2023-09-11T09:50:53.966Z,93.60
2023-09-11T09:53:24.046Z,94.00
2023-09-11T09:55:52.162Z,93.20
2023-09-11T09:58:28.350Z,91.00
2023-09-11T10:01:05.712Z,92.50
2023-09-11T10:03:45.861Z,93.50
2023-09-11T10:06:18.949Z,90.50
2023-09-11T10:08:47.567Z,91.40
2023-09-11T10:11:29.124Z,90.60
2023-09-11T10:13:59.219Z,88.90
2023-09-11T10:16:28.812Z,90.90
2023-09-11T10:18:58.578Z,89.20
2023-09-11T10:21:29.232Z,89.10
2023-09-11T10:23:57.977Z,88.70
2023-09-11T10:26:31.337Z,90.10
2023-09-11T10:29:05.142Z,88.70
2023-09-11T10:31:35.146Z,86.60
2023-09-11T10:34:04.405Z,88.50
2023-09-11T10:36:38.647Z,87.50
2023-09-11T10:39:10.966Z,83.90
2023-09-11T10:41:39.649Z,84.90
2023-09-11T10:44:08.077Z,83.10
2023-09-11T10:46:38.172Z,81.40
2023-09-11T10:49:16.499Z,79.80
2023-09-11T10:51:47.311Z,82.60
2023-09-11T10:54:16.615Z,81.90
2023-09-11T10:56:45.053Z,82.40
2023-09-11T10:59:13.435Z,79.90
2023-09-11T11:01:41.623Z,82.80
2023-09-11T11:04:09.895Z,80.00
2023-09-11T11:06:38.358Z,83.00
2023-09-11T11:09:32.341Z,81.30
2023-09-11T11:12:05.783Z,75.00
2023-09-11T11:14:34.089Z,78.20
2023-09-11T11:17:05.778Z,79.60
2023-09-11T11:19:35.615Z,79.90
2023-09-11T11:22:05.428Z,77.90
2023-09-11T11:24:36.948Z,75.90
2023-09-11T11:30:00.216Z,74.80
2023-09-11T11:32:31.953Z,73.30
2023-09-11T11:35:03.833Z,74.20
2023-09-11T11:37:33.320Z,72.80
2023-09-11T11:40:07.597Z,73.60
2023-09-11T11:42:35.843Z,74.40
2023-09-11T11:45:05.788Z,74.50
2023-09-11T11:47:34.270Z,71.50
2023-09-11T11:50:09.730Z,72.20
2023-09-11T11:52:37.872Z,71.10
2023-09-11T11:55:22.145Z,69.90
2023-09-11T11:57:53.474Z,71.40
2023-09-11T12:00:22.393Z,65.00
2023-09-11T12:02:51.343Z,64.40
2023-09-11T12:05:19.930Z,61.70
2023-09-11T12:07:48.242Z,65.00
2023-09-11T12:10:16.363Z,62.30
2023-09-11T12:12:46.809Z,60.00
2023-09-11T12:15:15.147Z,58.40
2023-09-11T12:17:48.113Z,59.70
2023-09-11T12:20:18.385Z,55.80
2023-09-11T12:22:48.285Z,56.90
2023-09-11T12:25:17.414Z,54.50
2023-09-11T12:27:47.333Z,53.20
2023-09-11T12:30:16.321Z,49.20
2023-09-11T12:32:46.335Z,48.40
2023-09-11T12:35:15.554Z,47.30
2023-09-11T12:37:43.832Z,48.40
2023-09-11T12:40:12.668Z,49.10
2023-09-11T12:42:41.255Z,48.40
2023-09-11T12:45:11.922Z,47.30
2023-09-11T12:47:40.212Z,44.10
2023-09-11T12:50:08.952Z,43.10
2023-09-11T12:52:37.737Z,42.60
2023-09-11T12:55:07.195Z,41.20
2023-09-11T12:57:35.298Z,40.00
2023-09-11T13:00:06.455Z,40.70
2023-09-11T13:02:36.163Z,39.00
2023-09-11T13:05:08.412Z,40.90
2023-09-11T13:07:37.366Z,38.50
2023-09-11T13:10:06.498Z,37.90
2023-09-11T13:12:34.736Z,38.40
2023-09-11T13:15:02.867Z,39.10
2023-09-11T13:17:31.259Z,40.80
2023-09-11T13:20:01.244Z,43.60
2023-09-11T13:22:29.385Z,44.30
2023-09-11T13:24:57.483Z,44.00
2023-09-11T13:27:25.668Z,47.30
2023-09-11T13:29:54.088Z,48.90
2023-09-11T13:32:22.334Z,48.10
2023-09-11T13:34:50.535Z,46.80
2023-09-11T13:37:19.994Z,50.10
2023-09-11T13:39:48.110Z,52.90
2023-09-11T13:42:18.631Z,52.00
2023-09-11T13:44:46.799Z,50.30
2023-09-11T13:47:14.894Z,51.90
2023-09-11T13:49:43.038Z,52.10
2023-09-11T13:52:11.096Z,53.60
2023-09-11T13:54:40.474Z,52.40
2023-09-11T13:57:08.697Z,53.10
2023-09-11T13:59:36.768Z,56.30
2023-09-11T14:02:05.096Z,53.80
2023-09-11T14:04:36.037Z,54.90
2023-09-11T14:07:05.203Z,57.20
2023-09-11T14:09:33.514Z,59.50
2023-09-11T14:12:03.158Z,57.50
2023-09-11T14:14:33.020Z,56.10
2023-09-11T14:17:01.086Z,55.90
2023-09-11T14:19:29.164Z,58.10
2023-09-11T14:21:57.248Z,58.20
2023-09-11T14:24:25.345Z,58.30
2023-09-11T14:26:53.637Z,57.80
2023-09-11T14:29:23.140Z,58.50
2023-09-11T14:31:51.965Z,58.40
2023-09-11T14:34:20.121Z,59.90
2023-09-11T14:36:48.267Z,60.80
2023-09-11T14:39:16.431Z,60.20
2023-09-11T14:41:44.812Z,60.90
2023-09-11T14:44:13.594Z,60.60
2023-09-11T14:46:43.532Z,61.40
2023-09-11T14:49:11.645Z,62.00
2023-09-11T14:51:40.056Z,62.30
2023-09-11T14:54:08.385Z,62.20
2023-09-11T14:56:36.526Z,62.90
2023-09-11T14:59:04.815Z,63.10
2023-09-11T15:01:36.257Z,62.70
2023-09-11T15:04:06.217Z,64.90
2023-09-11T15:06:34.996Z,60.80
2023-09-11T15:09:04.600Z,62.50
2023-09-11T15:11:33.036Z,63.00
2023-09-11T15:14:02.469Z,63.10
2023-09-11T15:16:32.299Z,64.70
2023-09-11T15:19:01.062Z,65.60
2023-09-11T15:21:30.643Z,67.80
2023-09-11T15:24:03.737Z,69.80
2023-09-11T15:26:32.028Z,69.70
2023-09-11T15:29:01.095Z,67.50
2023-09-11T15:31:29.316Z,69.70
2023-09-11T15:33:57.393Z,68.60
2023-09-11T15:36:25.982Z,71.20
2023-09-11T15:38:55.993Z,72.20
2023-09-11T15:41:24.474Z,76.10
2023-09-11T15:43:52.533Z,76.20
2023-09-11T15:46:35.114Z,78.00
2023-09-11T15:49:10.212Z,79.00
2023-09-11T15:51:41.494Z,78.80
2023-09-11T15:54:10.955Z,80.90
2023-09-11T15:56:39.292Z,81.90
2023-09-11T15:59:07.374Z,82.10
2023-09-11T16:01:36.774Z,83.80
2023-09-11T16:04:05.445Z,85.80
2023-09-11T16:06:33.610Z,86.70
2023-09-11T16:09:04.535Z,87.50
2023-09-11T16:11:34.008Z,88.70
2023-09-11T16:14:03.714Z,90.00
2023-09-11T16:16:33.516Z,90.80
2023-09-11T16:19:02.585Z,91.30
2023-09-11T16:21:40.292Z,91.90
2023-09-11T16:24:10.996Z,92.70
2023-09-11T16:26:40.634Z,93.70
2023-09-11T16:29:11.288Z,93.90
2023-09-11T16:31:40.123Z,94.70
2023-09-11T16:34:10.479Z,95.40
2023-09-11T16:36:39.185Z,96.40
2023-09-11T16:39:07.718Z,96.90
2023-09-11T16:41:35.974Z,97.70
2023-09-11T16:44:06.014Z,98.60
2023-09-11T16:46:34.472Z,99.40
2023-09-11T16:49:02.689Z,99.90
2023-09-11T16:51:31.352Z,99.90
2023-09-11T16:53:59.505Z,99.90
2023-09-11T16:56:28.328Z,99.90
2023-09-11T16:58:56.438Z,99.90
2023-09-11T17:01:25.924Z,99.90
2023-09-11T17:03:54.911Z,99.90
2023-09-11T17:06:23.270Z,99.90
2023-09-11T17:08:51.968Z,99.90
2023-09-11T17:11:20.520Z,99.90
2023-09-11T17:13:48.764Z,99.90
2023-09-11T17:16:21.586Z,99.90
2023-09-11T17:18:52.405Z,99.90
2023-09-11T17:21:20.560Z,99.90
2023-09-11T17:23:50.738Z,99.90
2023-09-11T17:26:19.792Z,99.90
2023-09-11T17:28:49.143Z,99.90
2023-09-11T17:31:17.916Z,99.90
2023-09-11T17:33:46.530Z,99.90
2023-09-11T17:36:17.223Z,99.90
2023-09-11T17:38:45.620Z,99.90
2023-09-11T17:41:13.989Z,99.90
2023-09-11T17:43:42.130Z,99.90
2023-09-11T17:46:15.810Z,99.90
2023-09-11T17:48:44.851Z,99.90
2023-09-11T17:51:14.114Z,99.90
2023-09-11T17:53:44.141Z,99.90
2023-09-11T17:56:12.460Z,99.90
2023-09-11T17:58:41.074Z,99.90
2023-09-11T18:01:09.619Z,99.90
2023-09-11T18:03:38.042Z,99.90
2023-09-11T18:06:06.696Z,99.90
2023-09-11T18:08:35.010Z,99.90
2023-09-11T18:11:04.800Z,99.90
2023-09-11T18:13:32.991Z,99.90
2023-09-11T18:16:02.561Z,99.90
2023-09-11T18:18:31.131Z,99.90
2023-09-11T18:20:59.811Z,99.90
2023-09-11T18:23:28.273Z,99.90
2023-09-11T18:25:57.406Z,99.90
2023-09-11T18:28:31.480Z,99.90
2023-09-11T18:31:00.044Z,99.90
2023-09-11T18:33:28.462Z,99.90
2023-09-11T18:35:57.648Z,99.90
2023-09-11T18:38:26.954Z,99.90
2023-09-11T18:40:55.446Z,99.90
2023-09-11T18:43:24.082Z,99.90
2023-09-11T18:45:54.240Z,99.90
2023-09-11T18:48:23.192Z,99.90
2023-09-11T18:50:51.849Z,99.90
2023-09-11T18:53:20.302Z,99.90
2023-09-11T18:55:50.355Z,99.90
2023-09-11T18:58:18.700Z,99.90
2023-09-11T19:00:47.262Z,99.90
2023-09-11T19:03:17.023Z,99.90
2023-09-11T19:05:45.588Z,99.90
2023-09-11T19:08:15.014Z,99.90
2023-09-11T19:10:43.556Z,99.90
2023-09-11T19:13:11.822Z,99.90
2023-09-11T19:15:40.062Z,99.90
2023-09-11T19:18:08.496Z,99.90
2023-09-11T19:20:38.457Z,99.90
2023-09-11T19:23:06.810Z,99.90
2023-09-11T19:25:35.467Z,99.90
2023-09-11T19:28:04.723Z,99.90
2023-09-11T19:30:38.070Z,99.90
2023-09-11T19:33:06.738Z,99.90
2023-09-11T19:35:35.219Z,99.90
2023-09-11T19:38:05.291Z,99.90
2023-09-11T19:40:35.240Z,99.90
2023-09-11T19:43:03.608Z,99.90
2023-09-11T19:45:32.165Z,99.90
2023-09-11T19:48:00.628Z,99.90
2023-09-11T19:50:29.042Z,99.90
2023-09-11T19:52:57.479Z,99.90
2023-09-11T19:55:27.712Z,99.90
2023-09-11T19:57:56.252Z,99.90
2023-09-11T20:00:24.706Z,99.90
2023-09-11T20:02:54.005Z,99.90
2023-09-11T20:05:22.690Z,99.90
2023-09-11T20:07:53.013Z,99.90
2023-09-11T20:10:21.999Z,99.90
2023-09-11T20:12:51.614Z,99.90
2023-09-11T20:15:20.118Z,99.90
2023-09-11T20:17:48.893Z,99.90
2023-09-11T20:20:17.408Z,99.90
2023-09-11T20:22:45.995Z,99.90
2023-09-11T20:25:14.615Z,99.90
2023-09-11T20:27:43.610Z,99.90
2023-09-11T20:30:17.644Z,99.90
2023-09-11T20:32:46.227Z,99.90
2023-09-11T20:35:14.553Z,99.90
2023-09-11T20:37:42.826Z,99.90
2023-09-11T20:40:12.260Z,99.90
2023-09-11T20:42:40.548Z,99.90
2023-09-11T20:45:10.382Z,99.90
2023-09-11T20:47:39.929Z,99.90
2023-09-11T20:50:10.857Z,99.90
2023-09-11T20:52:38.992Z,99.90
2023-09-11T20:55:08.744Z,99.90
2023-09-11T20:57:37.011Z,99.90
2023-09-11T21:00:05.884Z,99.90
2023-09-11T21:02:34.789Z,99.90
2023-09-11T21:05:04.446Z,99.90
2023-09-11T21:07:32.588Z,99.90
2023-09-11T21:10:00.724Z,99.90
2023-09-11T21:12:30.752Z,99.90
2023-09-11T21:14:58.982Z,99.90
2023-09-11T21:17:27.295Z,99.90
2023-09-11T21:19:55.490Z,99.90
2023-09-11T21:22:24.901Z,99.90
2023-09-11T21:24:52.969Z,99.90
2023-09-11T21:27:21.296Z,99.90
2023-09-11T21:29:49.425Z,99.90
2023-09-11T21:32:17.498Z,99.90
2023-09-11T21:34:45.571Z,99.90
2023-09-11T21:37:13.665Z,99.90
2023-09-11T21:39:43.618Z,99.90
2023-09-11T21:42:12.066Z,99.90
2023-09-11T21:44:40.322Z,99.90
2023-09-11T21:47:08.747Z,99.90
2023-09-11T21:49:36.933Z,99.90
2023-09-11T21:52:05.683Z,99.90
2023-09-11T21:54:33.797Z,99.90
2023-09-11T21:57:05.749Z,99.90
2023-09-11T21:59:34.125Z,99.90
2023-09-11T22:02:02.262Z,99.90
2023-09-11T22:04:30.439Z,99.90
2023-09-11T22:06:58.904Z,99.90
2023-09-11T22:09:27.166Z,99.90
2023-09-11T22:11:55.335Z,99.90
2023-09-11T22:14:26.014Z,99.90
2023-09-11T22:16:54.256Z,99.90
2023-09-11T22:19:22.425Z,99.90
2023-09-11T22:21:50.601Z,99.90
2023-09-11T22:24:18.750Z,99.90
2023-09-11T22:26:46.924Z,99.90
2023-09-11T22:29:15.012Z,99.90
2023-09-11T22:31:45.132Z,99.90
2023-09-11T22:34:13.354Z,99.90
2023-09-11T22:36:41.742Z,99.90
2023-09-11T22:39:09.867Z,99.90
2023-09-11T22:41:38.870Z,99.90
2023-09-11T22:44:07.075Z,99.90
2023-09-11T22:46:36.360Z,99.90
2023-09-11T22:49:06.090Z,99.90
2023-09-11T22:51:37.682Z,99.90
2023-09-11T22:54:05.972Z,99.90
2023-09-11T22:56:34.914Z,99.90
2023-09-11T22:59:03.096Z,99.90
2023-09-11T23:01:31.606Z,99.90
2023-09-11T23:03:59.799Z,99.90
2023-09-11T23:06:29.338Z,99.90
2023-09-11T23:08:57.842Z,99.90
2023-09-11T23:11:26.019Z,99.90
2023-09-11T23:13:54.170Z,99.90
2023-09-11T23:16:22.315Z,99.90
2023-09-11T23:18:52.918Z,99.90
2023-09-11T23:21:21.247Z,99.90
2023-09-11T23:23:51.814Z,99.90
2023-09-11T23:26:20.995Z,99.90
2023-09-11T23:28:49.065Z,99.90
2023-09-11T23:31:17.199Z,99.90
2023-09-11T23:33:45.768Z,99.90
2023-09-11T23:36:13.896Z,99.90
2023-09-11T23:38:42.548Z,99.90
2023-09-11T23:41:12.202Z,99.90
2023-09-11T23:43:40.323Z,99.90
2023-09-11T23:46:10.634Z,99.90
2023-09-11T23:48:39.114Z,99.90
2023-09-11T23:51:07.362Z,99.90
2023-09-11T23:53:35.449Z,99.90
2023-09-11T23:56:03.721Z,99.90
2023-09-11T23:58:33.271Z,99.90
